Terminal Aerodrome Forecast
Issued by NWS

Home | Current Version | Previous Version | Text Only | Print | Product List | Glossary On
Versions: 1 2 3 4 5 6 7 8 9 10 11 12 13 14 15 16 17 18 19 20 21 22 23
000
FTUS44 KBMX 250002 AAA
TAFTCL
TAF AMD
KTCL 250002Z 2500/2524 29008KT P6SM VCSH SCT060 BKN120
      TEMPO 2500/2501 29010G18KT 3SM RA BR BKN040 OVC120
     FM250600 26005KT P6SM BKN070
     FM251600 27012G18KT P6SM SCT250=

USA.gov is the U.S. government's official web portal to all federal, state and local government web resources and services.